createdAt,value
2019-01-15T00:05:15.055Z,970.9
2019-01-15T00:15:18.512Z,971.2
2019-01-15T00:25:21.922Z,971.4
2019-01-15T00:35:25.360Z,971.2
2019-01-15T00:45:28.784Z,971.4
2019-01-15T00:55:32.222Z,971.6
2019-01-15T01:05:35.640Z,971.7
2019-01-15T01:15:39.047Z,971.6
2019-01-15T01:25:42.471Z,972
2019-01-15T01:35:45.898Z,971.6
2019-01-15T01:45:49.302Z,971.8
2019-01-15T01:55:52.716Z,971.9
2019-01-15T02:05:56.112Z,972
2019-01-15T02:15:59.536Z,972.1
2019-01-15T02:26:02.926Z,972.3
2019-01-15T02:36:06.380Z,972.5
2019-01-15T02:46:09.809Z,972.6
2019-01-15T02:56:13.217Z,972.8
2019-01-15T03:06:16.643Z,972.9
2019-01-15T03:16:20.058Z,965.1
2019-01-15T03:26:23.524Z,965.2
2019-01-15T03:36:27.023Z,965.2
2019-01-15T03:46:30.416Z,965.2
2019-01-15T03:56:33.826Z,965.2
2019-01-15T04:06:37.238Z,965.1
2019-01-15T04:16:40.670Z,972.7
2019-01-15T04:26:44.106Z,972.7
2019-01-15T04:36:47.499Z,972.5
2019-01-15T04:46:50.925Z,972.3
2019-01-15T04:56:54.394Z,972.5
2019-01-15T05:06:57.807Z,972.4
2019-01-15T05:17:01.242Z,972.6
2019-01-15T05:27:04.763Z,972.7
2019-01-15T05:37:08.207Z,972.7
2019-01-15T05:47:11.601Z,972.6
2019-01-15T05:57:15.046Z,965.1
2019-01-15T06:07:18.493Z,972.7
2019-01-15T06:17:21.928Z,972.6
2019-01-15T06:27:25.366Z,972.6
2019-01-15T06:37:28.803Z,972.4
2019-01-15T06:47:32.245Z,972.6
2019-01-15T06:57:36.654Z,972.7
2019-01-15T07:07:40.087Z,965.4
2019-01-15T07:17:43.478Z,973
2019-01-15T07:27:46.909Z,973
2019-01-15T07:37:50.340Z,973.3
2019-01-15T07:47:53.753Z,973.1
2019-01-15T07:57:58.201Z,972.8
2019-01-15T08:08:01.622Z,965.2
2019-01-15T08:18:05.040Z,965.3
2019-01-15T08:28:08.522Z,972.5
2019-01-15T08:38:11.953Z,972.5
2019-01-15T08:48:15.387Z,972.6
2019-01-15T08:58:18.812Z,972.6
2019-01-15T09:08:22.302Z,971.5
2019-01-15T09:18:25.695Z,968.8
2019-01-15T09:28:29.097Z,967.7
2019-01-15T09:38:32.506Z,968
2019-01-15T09:48:35.928Z,967.4
2019-01-15T09:58:39.359Z,966.1
2019-01-15T10:08:42.777Z,965.9
2019-01-15T10:18:46.179Z,965.6
2019-01-15T10:28:49.614Z,966
2019-01-15T10:38:53.046Z,966.2
2019-01-15T10:48:56.455Z,966.8
2019-01-15T10:58:59.898Z,967.6
2019-01-15T11:09:03.343Z,968.2
2019-01-15T11:19:06.776Z,968.2
2019-01-15T11:29:10.208Z,968.2
2019-01-15T11:39:13.609Z,968
2019-01-15T11:49:17.026Z,967.9
2019-01-15T11:59:20.419Z,968.2
2019-01-15T12:09:23.858Z,967.9
2019-01-15T12:19:27.283Z,967.6
2019-01-15T12:29:30.751Z,968.4
2019-01-15T12:39:34.170Z,967.7
2019-01-15T12:49:37.588Z,967.8
2019-01-15T12:59:40.994Z,967.6
2019-01-15T13:09:44.431Z,967.5
2019-01-15T13:19:47.833Z,967.8
2019-01-15T13:29:52.235Z,967.7
2019-01-15T13:39:55.640Z,967.3
2019-01-15T13:50:00.065Z,967.2
2019-01-15T14:00:03.482Z,967.6
2019-01-15T14:10:06.904Z,967.3
2019-01-15T14:20:10.331Z,967.2
2019-01-15T14:30:13.720Z,967.9
2019-01-15T14:40:17.126Z,967.9
2019-01-15T14:50:20.544Z,968
2019-01-15T15:00:23.974Z,967.7
2019-01-15T15:10:27.416Z,967.7
2019-01-15T15:20:30.851Z,967.7
2019-01-15T15:30:34.285Z,967.7
2019-01-15T15:40:37.704Z,967.8
2019-01-15T15:50:41.144Z,967.9
2019-01-15T16:00:44.575Z,967.8
2019-01-15T16:10:47.961Z,968.1
2019-01-15T16:20:51.406Z,968.2
2019-01-15T16:30:54.884Z,968.3
2019-01-15T16:40:58.318Z,968.4
2019-01-15T16:51:01.748Z,968.3
2019-01-15T17:01:05.150Z,968.4
2019-01-15T17:11:08.577Z,968.5
2019-01-15T17:21:12.009Z,968.6
2019-01-15T17:31:15.458Z,968.7
2019-01-15T17:41:18.876Z,968.8
2019-01-15T17:51:22.322Z,968.8
2019-01-15T18:01:25.756Z,969
2019-01-15T18:11:29.179Z,969
2019-01-15T18:21:32.623Z,969.3
2019-01-15T18:31:36.056Z,969.6
2019-01-15T18:41:39.440Z,969.8
2019-01-15T18:51:42.889Z,970
2019-01-15T19:01:46.287Z,969.8
2019-01-15T19:11:49.736Z,970.3
2019-01-15T19:21:53.207Z,970.3
2019-01-15T19:31:56.635Z,970.3
2019-01-15T19:42:00.057Z,970.3
2019-01-15T19:52:03.448Z,970.2
2019-01-15T20:02:06.844Z,970.6
2019-01-15T20:12:10.267Z,971
2019-01-15T20:22:13.653Z,970.9
2019-01-15T20:32:17.100Z,971
2019-01-15T20:42:20.509Z,963.4
2019-01-15T20:52:23.964Z,963.5
2019-01-15T21:02:27.363Z,963.6
2019-01-15T21:12:30.781Z,963.6
2019-01-15T21:22:34.194Z,963.6
2019-01-15T21:32:37.615Z,963.6
2019-01-15T21:42:41.004Z,963.5
2019-01-15T21:52:48.326Z,963.3
2019-01-15T22:02:51.739Z,963.5
2019-01-15T22:12:55.138Z,963.7
2019-01-15T22:22:58.569Z,963.8
2019-01-15T22:33:02.006Z,963.8
2019-01-15T22:43:05.416Z,963.8
2019-01-15T22:53:08.864Z,963.6
2019-01-15T23:03:12.302Z,963.6
2019-01-15T23:13:15.717Z,963.7
2019-01-15T23:23:19.117Z,963.6
2019-01-15T23:33:22.567Z,963.7
2019-01-15T23:43:25.946Z,963.7
2019-01-15T23:53:29.330Z,963.8
